x

West Sea Otter (46204) Wave Buoy

2:00am - Tue 3rd Mar 2015 All times are PST. -8 hours from GMT.

  • Sig Wave height 3.6ft
  • Peak Period 4s
  • Wind
    11mph, 13mph gusts
  • Sea Temp 48°f
  • 空気 Temp 47°f
  • Sea Pressure 1024mb
  • West Sea Otter
  • West Sea Otter

More Historic Weather Station data

Upgrade to MSW Pro to gain access to the past 30 days of data for over 8000 Wavebouys and Weather Stations around the globe.

Join Pro

Comparision Forecast

View Surf forecast
   
Tue 03/03 2:00am 3.5ft 4s 11 13 mph 1024mb 48f 47f
1:00am 4.5ft 11s 16 18 mph 1023.5mb 48f 47f
12:00am 4.5ft 12s 18 20 mph 1023mb 48f 47f
Mon 03/02 11:00pm 4.5ft 6s 20 25 mph 1022.8mb 48f 48f
10:00pm 4ft 5s 18 20 mph 1023.2mb 48f 48f
9:00pm 4.5ft 7s 18 22 mph 1022.8mb 48f 49f
8:00pm 4.5ft 7s 18 20 mph 1022.5mb 49f 49f
7:00pm 4.5ft 7s 18 20 mph 1022.5mb 49f 49f
6:00pm 4.5ft 7s 18 20 mph 1022.6mb 49f 49f
5:00pm 4.5ft 7s 20 25 mph 1022.4mb 49f 49f
2:00pm 5ft 8s 18 22 mph 1022.6mb 49f 48f
1:00pm 5ft 8s 18 22 mph 1022.6mb 49f 49f
12:00pm 5.5ft 7s 18 22 mph 1022.4mb 49f 47f
11:00am 5.5ft 7s 20 22 mph 1022.3mb 49f 47f
10:00am 6ft 7s 18 22 mph 1022mb 49f 47f
9:00am 6ft 8s 20 22 mph 1021.6mb 49f 46f
8:00am 6ft 8s 20 22 mph 1021.8mb 48f 46f
7:00am 6.5ft 8s 20 25 mph 1021.5mb 48f 46f
6:00am 6ft 8s 20 25 mph 1021.2mb 49f 46f
5:00am 6ft 8s 22 27 mph 1021.2mb 49f 46f
4:00am  -   -  22
mph
- - -
3:00am 6ft 8s 22 25 mph 1020.8mb 49f 46f
1:00am 6.5ft 8s 25 27 mph 1020.8mb 49f 46f
12:00am 6.5ft 7s 25 27 mph 1021mb 49f 46f
Sun 03/01 11:00pm 6.5ft 7s 22 27 mph 1020.9mb 49f 46f
8:00pm 7ft 6s 25 29 mph 1020mb 49f 47f
7:00pm 7ft 7s 27 31 mph 1019.8mb 49f 47f
6:00pm 6ft 7s 25 29 mph 1020mb 49f 47f
4:00pm 5ft 7s 22 27 mph 1020.7mb 49f 47f
3:00pm 5ft 7s 13 16 mph 1020.9mb 49f 46f
1:00pm 5ft 7s 11 16 mph 1022.3mb 49f 46f
12:00pm 5ft 7s 16 20 mph 1022.9mb 49f 46f
10:00am 5ft 7s 16 18 mph 1023.5mb 49f 46f
9:00am 5ft 6s 18 20 mph 1023.8mb 49f 46f
8:00am 5ft 6s 20 22 mph 1024mb 49f 46f
7:00am 5ft 6s 18 20 mph 1023.9mb 49f 47f
6:00am 5ft 7s 18 20 mph 1024.2mb 49f 47f
5:00am 4.5ft 6s 16 18 mph 1024.4mb 49f 47f
4:00am 4.5ft 7s 18 22 mph 1024.5mb 49f 47f
3:00am 4ft 6s 18 20 mph 1024.9mb 49f 47f
2:00am 4ft 6s 18 20 mph 1025.1mb 49f 47f
1:00am 4ft 6s 16 18 mph 1025.1mb 49f 47f
12:00am 4.5ft 6s 13 18 mph 1025mb 49f 48f
Sat 02/28 11:00pm 4.5ft 6s 13 16 mph 1024.9mb 49f 48f
10:00pm 4.5ft 5s 13 16 mph 1025mb 49f 48f
9:00pm 4.5ft 6s 13 16 mph 1024.4mb 49f 48f
8:00pm  -   -  18
mph
1024.5mb - 48f
7:00pm 4.5ft 6s 16 20 mph 1024.6mb 49f 48f
6:00pm 3.5ft 7s 16 20 mph 1024.6mb 49f 47f
4:00pm 3.5ft 8s 11 13 mph 1024.8mb 49f 47f
2:00pm 4ft 8s 11 13 mph 1025.2mb 49f 47f
1:00pm 3.5ft 6s 11 13 mph 1025.2mb 49f 47f
12:00pm 4.5ft 7s 7 9 mph 1025.1mb 49f 47f
11:00am 4.5ft 6s 7 9 mph 1025.1mb 49f 47f
10:00am 4.5ft 6s 9 11 mph 1024.6mb 49f 46f
9:00am 4ft 8s 11 13 mph 1024.3mb 49f 47f
8:00am 4ft 8s 9
mph
1023.9mb 49f 47f
7:00am 4ft 8s 13
mph
1023.5mb 49f 47f
6:00am 4ft 8s 13 16 mph 1023.8mb 49f 47f
5:00am 4.5ft 8s 13 18 mph 1023.4mb 49f 47f
4:00am 4.5ft 8s 11 16 mph 1023.3mb 49f 47f
3:00am 4.5ft 7s 11 16 mph 1022.8mb 49f 47f
2:00am 4.5ft 8s 18 22 mph 1022.3mb 49f 48f
1:00am 5ft 8s 16 18 mph 1022.1mb 49f 48f
12:00am 5ft 7s 18 20 mph 1021.7mb 49f 48f
Fri 02/27 11:00pm 6ft 7s 20 22 mph 1021.4mb 49f 48f
10:00pm 6ft 7s 22 25 mph 1021.3mb 49f 49f
9:00pm 6.5ft 9s 22 25 mph 1021.2mb 49f 49f
8:00pm 6.5ft 8s 22 27 mph 1020.4mb 49f 49f
7:00pm 7ft 9s 22 29 mph 1019.7mb 49f 50f
6:00pm 7.5ft 7s 20 25 mph 1019.4mb 49f 49f
5:00pm 7ft 7s 25 29 mph 1018.7mb 49f 49f
4:00pm  -   -  27
mph
1018.1mb - 49f
2:00pm 10ft 7s 31 36 mph 1016.6mb 49f 49f
1:00pm 11ft 6s 34
mph
1016.2mb 49f 48f